Crook, Illinois
Current Conditions -  °F | °C
As of 6:55 PM on Saturday 22 Nov 2014 (Local Time) from KFWC Reporting Station
Overcast Overcast  
Wind Chill: 54°   Ceiling: 7500
Heat Index: 54°   Visibility: 10mi
Dew Point: 43°   Wind: 3mph
Humidity: 66%   Direction: 140°SE
Pressure: 30"   Gusts: NA
Location:  38.1018°N, 88.4953°W
Report Text: KFWC 230055Z AUTO 14003KT 10SM BKN075 OVC100 12/06 A3000 RMK AO1 T01220060
Loading
Personal Weather Stations






























Interactive Weather Map New forecast layout! Learn more

10-Day Weather Forecast

Advertisements
Track Severe Weather on mobile